Time;durP1;ratioP1;P1;durP2;ratioP2;P2;SDS_P1;SDS_P2;PMS_P1;PMS_P2;Temp;Humidity;BMP_temperature;BMP_pressure;BME280_temperature;BME280_humidity;BME280_pressure;Samples;Min_cycle;Max_cycle;Signal;HPM_P1;HPM_P2
2023/04/17 00:00:46;;;;;;;;;;;;;;;14.40;72.12;102177.75;7357700;19;19923;-61
2023/04/17 00:03:15;;;;;;;;;;;;;;;14.41;71.97;102179.44;7357908;19;19925;-61
2023/04/17 00:05:45;;;;;;;;;;;;;;;14.41;72.33;102182.09;7358901;19;19923;-60
2023/04/17 00:08:12;;;;;;;;;;;;;;;14.40;72.75;102181.25;7360171;19;20264;-60
2023/04/17 00:10:39;;;;;;;;;;;;;;;14.39;72.36;102179.56;7358096;19;20378;-65
2023/04/17 00:13:07;;;;;;;;;;;;;;;14.41;72.10;102190.88;7357804;19;19974;-62
2023/04/17 00:15:34;;;;;;;;;;;;;;;14.40;72.33;102197.13;7361007;19;20225;-60
2023/04/17 00:18:01;;;;;;;;;;;;;;;14.40;72.15;102191.84;7356282;19;19930;-60
2023/04/17 00:20:28;;;;;;;;;;;;;;;14.42;71.68;102189.91;7357079;19;20356;-60
2023/04/17 00:22:55;;;;;;;;;;;;;;;14.43;71.57;102198.66;7359426;19;19919;-61
2023/04/17 00:25:23;;;;;;;;;;;;;;;14.41;71.23;102198.81;7359887;19;20341;-62
2023/04/17 00:27:50;;;;;;;;;;;;;;;14.39;71.85;102198.13;7353993;19;20352;-61
2023/04/17 00:30:17;;;;;;;;;;;;;;;14.36;72.32;102194.88;7358592;19;20585;-59
2023/04/17 00:32:44;;;;;;;;;;;;;;;14.32;72.71;102193.50;7355762;19;19930;-60
2023/04/17 00:35:12;;;;;;;;;;;;;;;14.33;72.65;102190.69;7359026;19;19965;-62
2023/04/17 00:37:39;;;;;;;;;;;;;;;14.33;72.58;102190.69;7357602;19;19915;-60
2023/04/17 00:40:06;;;;;;;;;;;;;;;14.35;72.78;102193.22;7356133;19;19929;-61
2023/04/17 00:42:36;;;;;;;;;;;;;;;14.35;72.53;102185.28;7356015;19;19923;-60
2023/04/17 00:45:04;;;;;;;;;;;;;;;14.37;72.35;102181.56;7359626;19;20030;-58
2023/04/17 00:47:31;;;;;;;;;;;;;;;14.34;72.72;102179.13;7357342;19;20343;-61
2023/04/17 00:49:58;;;;;;;;;;;;;;;14.32;72.29;102175.81;7355521;19;19923;-61
2023/04/17 00:52:28;;;;;;;;;;;;;;;14.34;72.55;102179.13;7353642;19;20194;-62
2023/04/17 00:54:56;;;;;;;;;;;;;;;14.35;72.56;102172.88;7357148;19;19943;-60
2023/04/17 00:57:24;;;;;;;;;;;;;;;14.36;72.92;102174.56;7355587;19;20512;-62
2023/04/17 00:59:51;;;;;;;;;;;;;;;14.36;72.90;102182.53;7357832;19;20454;-60
2023/04/17 01:02:18;;;;;;;;;;;;;;;14.35;73.50;102172.88;7355880;19;21044;-60
2023/04/17 01:04:45;;;;;;;;;;;;;;;14.34;73.46;102187.09;7349207;19;19915;-60
2023/04/17 01:07:12;;;;;;;;;;;;;;;14.37;73.48;102175.41;7353749;19;20887;-60
2023/04/17 01:09:39;;;;;;;;;;;;;;;14.37;73.57;102176.25;7355066;19;19921;-61
2023/04/17 01:12:15;;;;;;;;;;;;;;;14.35;73.52;102170.22;7356932;19;19925;-62
2023/04/17 01:14:42;;;;;;;;;;;;;;;14.31;74.00;102171.50;7355700;19;19934;-60
2023/04/17 01:17:09;;;;;;;;;;;;;;;14.28;74.10;102166.47;7356751;19;19943;-61
2023/04/17 01:19:36;;;;;;;;;;;;;;;14.28;74.47;102168.28;7355543;19;20312;-61
2023/04/17 01:22:03;;;;;;;;;;;;;;;14.25;74.24;102177.34;7358595;19;20297;-62
2023/04/17 01:24:30;;;;;;;;;;;;;;;14.23;74.37;102176.66;7356383;19;19923;-59
2023/04/17 01:26:57;;;;;;;;;;;;;;;14.22;74.85;102182.13;7356201;19;19958;-61
2023/04/17 01:29:24;;;;;;;;;;;;;;;14.18;74.94;102178.06;7359547;19;21576;-61
2023/04/17 01:31:50;;;;;;;;;;;;;;;14.14;75.35;102178.34;7354452;19;19952;-61
2023/04/17 01:34:17;;;;;;;;;;;;;;;14.15;75.41;102179.19;7353774;19;20414;-62
2023/04/17 01:36:44;;;;;;;;;;;;;;;14.16;75.48;102172.09;7352135;19;19922;-60
2023/04/17 01:39:11;;;;;;;;;;;;;;;14.15;75.74;102171.25;7357878;19;19923;-62
2023/04/17 01:41:38;;;;;;;;;;;;;;;14.14;75.76;102165.13;7363376;19;19933;-61
2023/04/17 01:44:05;;;;;;;;;;;;;;;14.10;75.71;102174.31;7365767;19;20234;-60
2023/04/17 01:46:32;;;;;;;;;;;;;;;14.08;76.12;102172.78;7362228;19;19926;-62
2023/04/17 01:49:02;;;;;;;;;;;;;;;14.08;76.68;102172.78;7359792;19;20388;-62
2023/04/17 01:51:30;;;;;;;;;;;;;;;14.09;76.52;102167.34;7360216;19;19915;-61
2023/04/17 01:53:56;;;;;;;;;;;;;;;14.08;76.65;102160.38;7364940;19;19936;-61
2023/04/17 01:56:23;;;;;;;;;;;;;;;14.08;76.69;102165.69;7362418;19;19921;-61
2023/04/17 01:58:50;;;;;;;;;;;;;;;14.09;76.51;102164.72;7366870;19;19922;-61
2023/04/17 02:01:17;;;;;;;;;;;;;;;14.10;76.68;102160.25;7361506;19;19914;-61
2023/04/17 02:03:44;;;;;;;;;;;;;;;14.09;77.00;102162.06;7363102;19;20073;-62
2023/04/17 02:06:11;;;;;;;;;;;;;;;14.06;77.39;102158.88;7359844;19;19922;-59
2023/04/17 02:08:38;;;;;;;;;;;;;;;14.03;77.26;102162.63;7363822;19;20022;-61
2023/04/17 02:11:05;;;;;;;;;;;;;;;14.03;77.37;102164.44;7360351;19;19923;-62
2023/04/17 02:13:32;;;;;;;;;;;;;;;14.08;78.45;102154.25;7363912;19;20346;-62
2023/04/17 02:15:59;;;;;;;;;;;;;;;14.09;78.16;102161.22;7359147;19;19939;-62
2023/04/17 02:18:26;;;;;;;;;;;;;;;14.09;78.08;102163.88;7361617;19;20198;-62
2023/04/17 02:20:53;;;;;;;;;;;;;;;14.10;78.57;102168.19;7358917;19;20467;-62
2023/04/17 02:23:20;;;;;;;;;;;;;;;14.10;77.85;102166.38;7363252;19;20340;-60
2023/04/17 02:25:47;;;;;;;;;;;;;;;14.10;77.52;102163.75;7363742;19;19919;-61
2023/04/17 02:28:14;;;;;;;;;;;;;;;14.11;77.93;102169.88;7365601;19;20435;-61
2023/04/17 02:30:41;;;;;;;;;;;;;;;14.11;78.20;102162.78;7362090;19;19915;-61
2023/04/17 02:33:08;;;;;;;;;;;;;;;14.08;78.01;102162.19;7361866;19;19919;-57
2023/04/17 02:35:35;;;;;;;;;;;;;;;14.04;78.33;102163.47;7359185;19;20115;-61
2023/04/17 02:38:01;;;;;;;;;;;;;;;14.00;78.61;102170.03;7362518;19;19919;-60
2023/04/17 02:40:28;;;;;;;;;;;;;;;13.96;78.90;102164.19;7360366;19;20348;-62
2023/04/17 02:42:55;;;;;;;;;;;;;;;13.98;79.43;102169.31;7363001;19;20021;-61
2023/04/17 02:45:22;;;;;;;;;;;;;;;13.98;79.21;102159.56;7360241;19;19915;-61
2023/04/17 02:47:49;;;;;;;;;;;;;;;13.94;79.28;102160.00;7359089;19;19915;-62
2023/04/17 02:50:16;;;;;;;;;;;;;;;13.93;79.65;102161.81;7357083;19;19923;-60
2023/04/17 02:52:43;;;;;;;;;;;;;;;13.93;79.25;102164.44;7360283;19;19963;-61
2023/04/17 02:55:10;;;;;;;;;;;;;;;13.94;79.31;102168.78;7361045;19;20556;-62
2023/04/17 02:57:36;;;;;;;;;;;;;;;13.96;79.67;102171.28;7358748;19;19919;-60
2023/04/17 03:00:07;;;;;;;;;;;;;;;13.95;79.41;102159.88;7361483;19;20424;-61
2023/04/17 03:02:34;;;;;;;;;;;;;;;13.96;79.22;102168.66;7353887;19;19923;-60
2023/04/17 03:05:03;;;;;;;;;;;;;;;13.97;80.74;102168.47;7364337;19;19957;-60
2023/04/17 03:07:29;;;;;;;;;;;;;;;13.97;80.04;102168.47;7359996;19;19919;-60
2023/04/17 03:09:57;;;;;;;;;;;;;;;13.95;79.14;102167.81;7361236;19;19933;-61
2023/04/17 03:12:24;;;;;;;;;;;;;;;13.94;79.52;102178.53;7361683;19;20343;-59
2023/04/17 03:14:51;;;;;;;;;;;;;;;13.93;78.75;102175.03;7361881;19;20372;-61
2023/04/17 03:17:20;;;;;;;;;;;;;;;13.94;78.82;102181.16;7357678;19;20068;-58
2023/04/17 03:19:48;;;;;;;;;;;;;;;13.90;79.11;102188.56;7358140;19;20530;-60
2023/04/17 03:22:15;;;;;;;;;;;;;;;13.88;79.76;102181.72;7359805;19;19922;-62
2023/04/17 03:24:42;;;;;;;;;;;;;;;13.87;79.70;102182.69;7360963;19;19915;-61
2023/04/17 03:27:09;;;;;;;;;;;;;;;13.84;80.00;102185.63;7362445;19;19919;-60
2023/04/17 03:29:37;;;;;;;;;;;;;;;13.80;80.52;102181.59;7362692;19;20285;-62
2023/04/17 03:32:04;;;;;;;;;;;;;;;13.75;80.80;102184.69;7358308;19;19923;-61
2023/04/17 03:34:31;;;;;;;;;;;;;;;13.73;81.40;102186.63;7358613;19;19923;-60
2023/04/17 03:36:59;;;;;;;;;;;;;;;13.70;81.89;102190.38;7357983;19;20552;-61
2023/04/17 03:39:26;;;;;;;;;;;;;;;13.68;82.79;102192.31;7362433;19;19938;-61
2023/04/17 03:41:53;;;;;;;;;;;;;;;13.70;83.38;102194.84;7357942;19;20241;-62
2023/04/17 03:44:20;;;;;;;;;;;;;;;13.68;82.81;102189.69;7357873;19;19946;-59
2023/04/17 03:46:47;;;;;;;;;;;;;;;13.67;83.69;102188.00;7359585;19;19923;-61
2023/04/17 03:49:15;;;;;;;;;;;;;;;13.65;84.08;102192.63;7359741;19;20345;-63
2023/04/17 03:51:50;;;;;;;;;;;;;;;13.63;84.43;102191.91;7358281;19;19986;-59
2023/04/17 03:54:17;;;;;;;;;;;;;;;13.61;83.97;102203.63;7358782;19;19907;-59
2023/04/17 03:56:44;;;;;;;;;;;;;;;13.59;84.31;102197.63;7358617;19;20833;-60
2023/04/17 03:59:11;;;;;;;;;;;;;;;13.53;85.00;102195.50;7358617;19;19923;-60
2023/04/17 04:01:38;;;;;;;;;;;;;;;13.49;85.68;102196.78;7354357;19;19972;-60
2023/04/17 04:04:05;;;;;;;;;;;;;;;13.46;85.76;102194.41;7358731;19;20229;-61
2023/04/17 04:06:33;;;;;;;;;;;;;;;13.41;86.51;102194.78;7356873;19;20603;-61
2023/04/17 04:09:00;;;;;;;;;;;;;;;13.39;86.82;102193.28;7358113;19;20488;-59
2023/04/17 04:11:27;;;;;;;;;;;;;;;13.36;87.18;102194.38;7359437;19;19919;-60
2023/04/17 04:13:55;;;;;;;;;;;;;;;13.36;88.52;102198.84;7362563;19;20052;-61
2023/04/17 04:16:22;;;;;;;;;;;;;;;13.33;88.58;102194.66;7356895;19;19918;-62
2023/04/17 04:18:49;;;;;;;;;;;;;;;13.31;88.18;102201.88;7356595;19;20474;-62
2023/04/17 04:21:16;;;;;;;;;;;;;;;13.30;88.89;102205.53;7357621;19;19926;-60
2023/04/17 04:23:44;;;;;;;;;;;;;;;13.26;88.88;102204.94;7360013;19;19915;-60
2023/04/17 04:26:11;;;;;;;;;;;;;;;13.25;89.23;102210.38;7363305;19;20317;-62
2023/04/17 04:28:38;;;;;;;;;;;;;;;13.24;89.01;102214.81;7361238;19;20345;-60
2023/04/17 04:31:06;;;;;;;;;;;;;;;13.22;88.42;102206.19;7357073;19;20008;-60
2023/04/17 04:33:34;;;;;;;;;;;;;;;13.18;88.58;102211.88;7358168;19;19986;-61
2023/04/17 04:36:02;;;;;;;;;;;;;;;13.12;89.03;102218.53;7356346;19;19948;-60
2023/04/17 04:38:30;;;;;;;;;;;;;;;13.12;89.40;102217.69;7358122;19;20586;-61
2023/04/17 04:41:00;;;;;;;;;;;;;;;13.10;89.88;102220.47;7358237;19;20472;-60
2023/04/17 04:43:28;;;;;;;;;;;;;;;13.10;89.65;102219.63;7360837;19;20485;-62
2023/04/17 04:45:55;;;;;;;;;;;;;;;13.07;89.75;102222.53;7358762;19;19948;-61
2023/04/17 04:48:22;;;;;;;;;;;;;;;13.08;89.99;102226.84;7358358;19;19918;-61
2023/04/17 04:50:49;;;;;;;;;;;;;;;13.07;89.07;102233.09;7357055;19;19921;-61
2023/04/17 04:53:17;;;;;;;;;;;;;;;13.05;89.12;102237.69;7359194;19;20384;-60
2023/04/17 04:55:44;;;;;;;;;;;;;;;12.99;89.32;102220.56;7357565;19;21060;-63
2023/04/17 04:58:12;;;;;;;;;;;;;;;13.00;89.99;102224.03;7358048;19;19925;-61
2023/04/17 05:00:39;;;;;;;;;;;;;;;13.01;89.72;102221.25;7358868;19;19914;-62
2023/04/17 05:03:06;;;;;;;;;;;;;;;13.02;89.85;102214.16;7354290;19;19922;-62
2023/04/17 05:05:34;;;;;;;;;;;;;;;13.04;90.46;102214.88;7360391;19;19948;-60
2023/04/17 05:08:02;;;;;;;;;;;;;;;13.04;90.19;102209.59;7358467;19;20019;-61
2023/04/17 05:10:29;;;;;;;;;;;;;;;13.07;90.00;102209.31;7354550;19;20256;-60
2023/04/17 05:12:57;;;;;;;;;;;;;;;13.06;90.74;102203.19;7354693;19;20033;-62
2023/04/17 05:15:24;;;;;;;;;;;;;;;13.07;91.45;102210.16;7362299;19;19986;-62
2023/04/17 05:17:51;;;;;;;;;;;;;;;13.10;91.47;102211.69;7362132;19;19919;-61
2023/04/17 05:20:19;;;;;;;;;;;;;;;13.07;91.54;102204.88;7362548;19;20789;-62
2023/04/17 05:22:46;;;;;;;;;;;;;;;13.10;91.97;102203.78;7363542;19;19926;-60
2023/04/17 05:25:15;;;;;;;;;;;;;;;13.10;90.62;102194.03;7366907;19;20381;-59
2023/04/17 05:27:42;;;;;;;;;;;;;;;13.11;90.10;102195.72;7361682;19;19942;-64
2023/04/17 05:30:10;;;;;;;;;;;;;;;13.12;90.50;102186.81;7364524;19;20840;-61
2023/04/17 05:32:37;;;;;;;;;;;;;;;13.12;90.11;102186.81;7361926;19;19942;-61
2023/04/17 05:35:05;;;;;;;;;;;;;;;13.11;90.65;102181.63;7361703;19;20470;-61
2023/04/17 05:37:32;;;;;;;;;;;;;;;13.14;91.99;102187.53;7365087;19;20369;-60
2023/04/17 05:40:00;;;;;;;;;;;;;;;13.13;91.30;102185.88;7366834;19;20007;-63
2023/04/17 05:42:28;;;;;;;;;;;;;;;13.12;91.40;102196.56;7364151;19;19927;-61
2023/04/17 05:44:55;;;;;;;;;;;;;;;13.13;92.80;102196.44;7366220;19;19918;-60
2023/04/17 05:47:24;;;;;;;;;;;;;;;13.14;93.04;102200.75;7362125;19;19938;-61
2023/04/17 05:49:57;;;;;;;;;;;;;;;13.16;92.24;102211.16;7361243;19;20028;-61
2023/04/17 05:52:25;;;;;;;;;;;;;;;13.16;91.74;102213.81;7365629;19;20274;-64
2023/04/17 05:54:52;;;;;;;;;;;;;;;13.16;91.15;102217.28;7361121;19;19928;-63
2023/04/17 05:57:21;;;;;;;;;;;;;;;13.18;90.96;102217.16;7361075;19;20309;-60
2023/04/17 05:59:52;;;;;;;;;;;;;;;13.21;90.16;102220.38;7360889;19;20535;-61
2023/04/17 06:02:21;;;;;;;;;;;;;;;13.22;89.91;102213.28;7358419;19;19925;-61
2023/04/17 06:04:49;;;;;;;;;;;;;;;13.23;89.82;102214.97;7359695;19;19915;-61
2023/04/17 06:07:21;;;;;;;;;;;;;;;13.24;89.44;102211.34;7360664;19;20304;-62
2023/04/17 06:09:50;;;;;;;;;;;;;;;13.26;89.57;102212.03;7363554;19;20262;-59
2023/04/17 06:12:20;;;;;;;;;;;;;;;13.30;89.42;102209.97;7358845;19;19915;-60
2023/04/17 06:15:02;;;;;;;;;;;;;;;13.30;89.37;102215.25;7365143;19;19923;-60
2023/04/17 06:17:31;;;;;;;;;;;;;;;13.32;89.35;102214.13;7360036;19;20321;-60
2023/04/17 06:20:59;;;;;;;;;;;;;;;13.35;88.59;102223.63;7361492;19;20455;-61
2023/04/17 06:23:31;;;;;;;;;;;;;;;13.40;88.75;102227.53;7355819;19;19919;-61
2023/04/17 06:25:58;;;;;;;;;;;;;;;13.49;87.96;102231.16;7356439;19;19922;-62
2023/04/17 06:28:25;;;;;;;;;;;;;;;13.58;88.59;102244.38;7360814;19;21139;-54
2023/04/17 06:30:56;;;;;;;;;;;;;;;13.65;87.63;102231.44;7358602;19;20034;-63
2023/04/17 06:33:23;;;;;;;;;;;;;;;13.67;87.64;102243.56;7359643;19;19915;-64
2023/04/17 06:35:52;;;;;;;;;;;;;;;13.73;88.05;102247.47;7359424;19;20387;-60
2023/04/17 06:38:19;;;;;;;;;;;;;;;13.84;87.96;102246.50;7360217;19;19926;-60
2023/04/17 06:40:46;;;;;;;;;;;;;;;13.89;86.99;102254.84;7359037;19;19990;-62
2023/04/17 06:43:15;;;;;;;;;;;;;;;13.89;86.38;102254.84;7360739;19;20510;-61
2023/04/17 06:45:42;;;;;;;;;;;;;;;13.96;86.46;102263.91;7360712;19;19926;-61
2023/04/17 06:48:09;;;;;;;;;;;;;;;14.04;85.90;102264.88;7360161;19;20046;-59
2023/04/17 06:50:36;;;;;;;;;;;;;;;14.28;85.98;102269.72;7358939;19;19967;-62
2023/04/17 06:53:03;;;;;;;;;;;;;;;14.61;84.35;102270.28;7360043;19;19911;-61
2023/04/17 06:55:30;;;;;;;;;;;;;;;14.92;81.06;102266.41;7357730;19;20005;-61
2023/04/17 06:57:57;;;;;;;;;;;;;;;15.13;79.89;102268.84;7359912;19;19926;-61
2023/04/17 07:00:24;;;;;;;;;;;;;;;15.44;78.88;102278.13;7357771;19;20275;-60
2023/04/17 07:02:51;;;;;;;;;;;;;;;15.66;77.35;102288.38;7353164;19;19930;-61
2023/04/17 07:05:18;;;;;;;;;;;;;;;15.56;76.06;102292.91;7359912;19;19915;-60
2023/04/17 07:07:45;;;;;;;;;;;;;;;15.47;75.35;102300.91;7356818;19;19982;-60
2023/04/17 07:10:14;;;;;;;;;;;;;;;15.33;76.27;102312.84;7359428;19;19963;-59
2023/04/17 07:12:41;;;;;;;;;;;;;;;15.27;77.19;102318.72;7358125;19;19929;-59
2023/04/17 07:15:09;;;;;;;;;;;;;;;15.34;76.75;102328.59;7359797;19;19918;-61
2023/04/17 07:17:36;;;;;;;;;;;;;;;15.40;76.19;102320.06;7356630;19;19911;-60
2023/04/17 07:20:05;;;;;;;;;;;;;;;15.49;75.30;102328.13;7359105;19;20571;-64
2023/04/17 07:22:33;;;;;;;;;;;;;;;15.59;75.05;102331.59;7355729;19;19915;-58
2023/04/17 07:25:00;;;;;;;;;;;;;;;15.52;74.68;102327.84;7357589;19;19985;-61
2023/04/17 07:27:28;;;;;;;;;;;;;;;15.31;74.56;102323.59;7358559;19;19959;-59
2023/04/17 07:29:55;;;;;;;;;;;;;;;15.26;74.22;102330.31;7359927;19;20015;-61
2023/04/17 07:32:23;;;;;;;;;;;;;;;15.27;75.33;102318.72;7356312;19;19918;-62
2023/04/17 07:34:50;;;;;;;;;;;;;;;15.23;74.99;102326.16;7360587;19;19915;-57
2023/04/17 07:37:17;;;;;;;;;;;;;;;15.16;75.88;102319.75;7356412;19;19919;-59
2023/04/17 07:39:47;;;;;;;;;;;;;;;15.19;76.23;102316.78;7360634;19;19935;-62
2023/04/17 07:42:15;;;;;;;;;;;;;;;15.31;76.21;102317.44;7356141;19;19921;-62
2023/04/17 07:44:42;;;;;;;;;;;;;;;15.35;77.33;102322.31;7358849;19;19927;-61
2023/04/17 07:47:09;;;;;;;;;;;;;;;15.34;75.60;102325.94;7356707;19;19956;-62
2023/04/17 07:49:39;;;;;;;;;;;;;;;15.54;73.54;102328.56;7357564;19;19929;-60
2023/04/17 07:52:06;;;;;;;;;;;;;;;15.72;72.50;102326.75;7358695;19;19923;-59
2023/04/17 07:54:33;;;;;;;;;;;;;;;15.98;72.19;102321.56;7356993;19;20775;-64
2023/04/17 07:57:01;;;;;;;;;;;;;;;16.54;71.99;102323.88;7357169;19;20643;-58
2023/04/17 07:59:28;;;;;;;;;;;;;;;17.12;68.02;102334.72;7357547;19;19957;-57
2023/04/17 08:01:56;;;;;;;;;;;;;;;17.64;65.79;102338.16;7355867;19;19930;-60
2023/04/17 08:04:24;;;;;;;;;;;;;;;18.05;63.05;102341.75;7358565;19;20016;-61
2023/04/17 08:06:52;;;;;;;;;;;;;;;18.27;61.05;102341.13;7358447;19;20290;-61
2023/04/17 08:09:20;;;;;;;;;;;;;;;18.56;60.22;102340.63;7358650;19;20408;-59
2023/04/17 08:11:46;;;;;;;;;;;;;;;18.69;58.65;102334.81;7357893;19;20010;-63
2023/04/17 08:14:23;;;;;;;;;;;;;;;18.64;58.35;102339.81;7357480;19;19987;-62
2023/04/17 08:16:51;;;;;;;;;;;;;;;18.63;58.67;102338.97;7356762;19;19926;-62
2023/04/17 08:19:18;;;;;;;;;;;;;;;18.48;58.83;102340.63;7356589;19;20373;-59
2023/04/17 08:21:46;;;;;;;;;;;;;;;18.27;58.51;102354.44;7355088;19;19919;-60
2023/04/17 08:24:14;;;;;;;;;;;;;;;17.89;58.75;102353.19;7358075;19;19921;-61
2023/04/17 08:26:45;;;;;;;;;;;;;;;17.61;59.64;102350.97;7358384;19;20296;-60
2023/04/17 08:29:12;;;;;;;;;;;;;;;17.37;59.69;102357.00;7357477;19;19926;-59
2023/04/17 08:31:40;;;;;;;;;;;;;;;17.17;60.70;102355.56;7356061;19;19922;-60
2023/04/17 08:34:07;;;;;;;;;;;;;;;16.98;62.70;102357.44;7359178;19;20007;-60
2023/04/17 08:36:40;;;;;;;;;;;;;;;16.79;61.42;102370.94;7358353;19;20530;-61
2023/04/17 08:39:09;;;;;;;;;;;;;;;16.70;62.94;102361.25;7357100;19;19922;-60
2023/04/17 08:41:41;;;;;;;;;;;;;;;16.66;62.54;102359.84;7353509;19;19931;-63
2023/04/17 08:44:08;;;;;;;;;;;;;;;16.61;63.64;102354.19;7357711;19;19953;-64
2023/04/17 08:46:36;;;;;;;;;;;;;;;16.50;63.93;102368.53;7354969;19;19922;-64
2023/04/17 08:49:03;;;;;;;;;;;;;;;16.47;63.92;102360.84;7360066;19;19927;-64
2023/04/17 08:51:30;;;;;;;;;;;;;;;16.44;64.69;102357.69;7363804;19;19919;-63
2023/04/17 08:53:57;;;;;;;;;;;;;;;16.40;63.38;102370.44;7367732;19;20670;-65
2023/04/17 08:56:24;;;;;;;;;;;;;;;16.33;63.14;102371.19;7360663;19;19927;-64
2023/04/17 08:58:51;;;;;;;;;;;;;;;16.26;61.96;102373.59;7365096;19;21359;-64
2023/04/17 09:01:19;;;;;;;;;;;;;;;16.21;60.93;102386.50;7361832;19;19923;-64
2023/04/17 09:03:48;;;;;;;;;;;;;;;16.19;62.67;102377.88;7362950;19;19922;-65
2023/04/17 09:06:15;;;;;;;;;;;;;;;16.13;61.32;102389.94;7363033;19;19963;-66
2023/04/17 09:08:45;;;;;;;;;;;;;;;16.15;62.79;102392.44;7363819;19;20145;-65
2023/04/17 09:11:16;;;;;;;;;;;;;;;16.13;61.27;102389.09;7362674;19;19936;-64
2023/04/17 09:13:48;;;;;;;;;;;;;;;16.09;60.17;102385.06;7366143;19;20009;-65
2023/04/17 09:16:15;;;;;;;;;;;;;;;15.93;58.73;102379.59;7360029;19;19925;-64
2023/04/17 09:18:44;;;;;;;;;;;;;;;15.95;57.42;102381.09;7363021;19;19935;-65
2023/04/17 09:21:12;;;;;;;;;;;;;;;15.86;56.94;102381.16;7358524;19;20518;-66
2023/04/17 09:23:42;;;;;;;;;;;;;;;15.81;56.86;102389.56;7366275;19;20301;-65
2023/04/17 09:26:11;;;;;;;;;;;;;;;15.86;55.71;102373.19;7362464;19;20269;-65
2023/04/17 09:28:38;;;;;;;;;;;;;;;15.74;56.73;102372.56;7363960;19;19927;-65
2023/04/17 09:31:09;;;;;;;;;;;;;;;15.80;56.63;102383.41;7361713;19;20517;-65
2023/04/17 09:33:54;;;;;;;;;;;;;;;15.90;55.40;102369.28;7362746;19;19925;-60
2023/04/17 09:36:21;;;;;;;;;;;;;;;15.89;55.09;102360.47;7360657;19;19927;-58
2023/04/17 09:38:48;;;;;;;;;;;;;;;15.81;55.69;102360.38;7362078;19;19930;-58
2023/04/17 09:41:19;;;;;;;;;;;;;;;15.77;56.50;102354.53;7361075;19;19919;-60
2023/04/17 09:43:48;;;;;;;;;;;;;;;15.81;57.82;102358.56;7362259;19;19939;-60
2023/04/17 09:46:29;;;;;;;;;;;;;;;15.90;58.49;102356.00;7360671;19;20452;-58
2023/04/17 09:49:00;;;;;;;;;;;;;;;16.01;59.36;102353.09;7365747;19;20369;-59
2023/04/17 09:51:28;;;;;;;;;;;;;;;16.08;58.40;102354.19;7361746;19;19926;-59
2023/04/17 09:53:57;;;;;;;;;;;;;;;16.17;58.33;102351.44;7365327;19;20304;-60
2023/04/17 09:56:26;;;;;;;;;;;;;;;16.26;59.06;102349.69;7361469;19;19998;-62
2023/04/17 09:58:54;;;;;;;;;;;;;;;16.37;60.05;102346.81;7365285;19;20024;-59
2023/04/17 10:01:26;;;;;;;;;;;;;;;16.45;59.26;102354.88;7360992;19;19915;-60
2023/04/17 10:03:57;;;;;;;;;;;;;;;16.54;58.54;102355.75;7363418;19;19962;-62
2023/04/17 10:06:26;;;;;;;;;;;;;;;16.63;58.73;102354.88;7359971;19;19915;-61
2023/04/17 10:08:53;;;;;;;;;;;;;;;16.70;60.12;102357.75;7361658;19;19919;-60
2023/04/17 10:11:23;;;;;;;;;;;;;;;16.75;59.13;102360.78;7361927;19;20389;-62
2023/04/17 10:13:57;;;;;;;;;;;;;;;16.80;60.41;102359.31;7363516;19;20273;-62
2023/04/17 10:16:27;;;;;;;;;;;;;;;16.80;60.03;102361.16;7362647;19;19919;-61
2023/04/17 10:18:57;;;;;;;;;;;;;;;16.80;60.69;102361.16;7361703;19;19915;-60
2023/04/17 10:21:28;;;;;;;;;;;;;;;16.80;61.11;102361.97;7361402;19;19926;-59
2023/04/17 10:23:55;;;;;;;;;;;;;;;16.83;60.56;102358.16;7361628;19;20411;-59
2023/04/17 10:26:24;;;;;;;;;;;;;;;16.88;60.81;102355.88;7360436;19;19918;-60
2023/04/17 10:28:52;;;;;;;;;;;;;;;16.92;60.56;102354.56;7360766;19;19963;-63
2023/04/17 10:31:19;;;;;;;;;;;;;;;16.98;60.69;102357.44;7361027;19;19914;-62
2023/04/17 10:33:48;;;;;;;;;;;;;;;17.05;59.96;102358.50;7361671;19;19915;-60
2023/04/17 10:36:18;;;;;;;;;;;;;;;17.07;59.43;102356.50;7360007;19;20539;-60
2023/04/17 10:38:45;;;;;;;;;;;;;;;17.11;60.09;102351.72;7360947;19;19919;-61
2023/04/17 10:41:12;;;;;;;;;;;;;;;17.15;60.19;102350.41;7362480;19;19936;-61
2023/04/17 10:43:41;;;;;;;;;;;;;;;17.16;59.82;102357.38;7361306;19;19915;-59
2023/04/17 10:46:09;;;;;;;;;;;;;;;17.14;59.66;102347.88;7359175;19;20329;-63
2023/04/17 10:48:39;;;;;;;;;;;;;;;17.15;59.85;102349.56;7362877;19;19930;-60
2023/04/17 10:51:09;;;;;;;;;;;;;;;17.15;60.22;102357.53;7361645;19;19940;-61
2023/04/17 10:53:40;;;;;;;;;;;;;;;17.15;60.45;102353.06;7360502;19;20255;-60
2023/04/17 10:56:08;;;;;;;;;;;;;;;17.15;59.60;102350.41;7357484;19;20159;-62
2023/04/17 10:58:36;;;;;;;;;;;;;;;17.17;60.15;102351.06;7359982;19;20272;-62
2023/04/17 11:01:08;;;;;;;;;;;;;;;17.17;59.74;102350.25;7358855;19;19919;-62
2023/04/17 11:03:37;;;;;;;;;;;;;;;17.20;60.07;102347.25;7357039;19;19958;-60
2023/04/17 11:06:05;;;;;;;;;;;;;;;17.20;59.81;102348.09;7357416;19;19929;-61
2023/04/17 11:08:32;;;;;;;;;;;;;;;17.23;59.83;102352.25;7360077;19;20493;-60
2023/04/17 11:10:59;;;;;;;;;;;;;;;17.26;59.58;102351.94;7357971;19;19914;-58
2023/04/17 11:13:30;;;;;;;;;;;;;;;17.32;57.62;102353.97;7360133;19;19933;-60
2023/04/17 11:15:57;;;;;;;;;;;;;;;17.35;58.25;102361.63;7358313;19;20719;-64
2023/04/17 11:18:26;;;;;;;;;;;;;;;17.31;58.09;102361.13;7357033;19;21596;-62
2023/04/17 11:20:53;;;;;;;;;;;;;;;17.33;57.48;102355.63;7357872;19;19929;-61
2023/04/17 11:23:20;;;;;;;;;;;;;;;17.30;57.61;102359.47;7361482;19;20024;-62
2023/04/17 11:25:47;;;;;;;;;;;;;;;17.34;57.74;102352.81;7357983;19;20503;-60
2023/04/17 11:28:15;;;;;;;;;;;;;;;17.29;57.11;102357.78;7360057;19;19918;-59
2023/04/17 11:30:43;;;;;;;;;;;;;;;17.24;57.29;102364.56;7359480;19;19973;-63
2023/04/17 11:33:11;;;;;;;;;;;;;;;17.16;56.99;102351.22;7359099;19;20519;-61
2023/04/17 11:35:39;;;;;;;;;;;;;;;17.05;57.66;102357.66;7356703;19;20623;-61
2023/04/17 11:38:07;;;;;;;;;;;;;;;16.94;58.19;102341.97;7359151;19;19919;-65
2023/04/17 11:40:34;;;;;;;;;;;;;;;16.95;59.42;102359.59;7358231;19;19925;-60
2023/04/17 11:43:04;;;;;;;;;;;;;;;16.96;59.39;102346.16;7358150;19;19948;-66
2023/04/17 11:45:33;;;;;;;;;;;;;;;17.05;59.15;102353.16;7359520;19;19931;-61
2023/04/17 11:48:01;;;;;;;;;;;;;;;17.06;58.99;102351.34;7355915;19;20420;-61
2023/04/17 11:50:29;;;;;;;;;;;;;;;17.15;59.20;102346.91;7358883;19;20398;-62
2023/04/17 11:52:59;;;;;;;;;;;;;;;17.18;59.29;102357.22;7357401;19;20651;-60
2023/04/17 11:57:58;;;;;;;;;;;;;;;17.29;58.31;102364.94;7357985;19;20563;-63
2023/04/17 12:00:28;;;;;;;;;;;;;;;17.37;57.92;102363.13;7361307;19;20460;-59
2023/04/17 12:02:56;;;;;;;;;;;;;;;17.33;58.19;102356.47;7355530;19;20470;-61
2023/04/17 12:05:25;;;;;;;;;;;;;;;17.22;57.65;102356.72;7359887;19;20013;-61
2023/04/17 12:07:55;;;;;;;;;;;;;;;17.27;57.73;102357.09;7356979;19;20666;-61
2023/04/17 12:10:22;;;;;;;;;;;;;;;17.31;57.60;102357.63;7356115;19;20799;-60
2023/04/17 12:12:49;;;;;;;;;;;;;;;17.35;58.14;102354.50;7355183;19;20270;-62
2023/04/17 12:15:16;;;;;;;;;;;;;;;17.39;56.70;102352.34;7359290;19;19923;-62
2023/04/17 12:17:43;;;;;;;;;;;;;;;17.48;56.88;102346.03;7354028;19;20480;-62
2023/04/17 12:20:11;;;;;;;;;;;;;;;17.54;57.00;102345.41;7358872;19;20028;-63
2023/04/17 12:22:40;;;;;;;;;;;;;;;17.55;57.28;102352.41;7353588;19;19930;-61
2023/04/17 12:25:07;;;;;;;;;;;;;;;17.60;56.54;102355.44;7357663;19;20577;-62
2023/04/17 12:27:35;;;;;;;;;;;;;;;17.69;56.65;102351.81;7356730;19;20023;-60
2023/04/17 12:30:02;;;;;;;;;;;;;;;17.78;57.49;102345.50;7359226;19;19918;-61
2023/04/17 12:32:32;;;;;;;;;;;;;;;17.85;56.22;102351.03;7357597;19;20252;-60
2023/04/17 12:34:59;;;;;;;;;;;;;;;17.86;56.58;102352.72;7357818;19;19990;-60
2023/04/17 12:37:26;;;;;;;;;;;;;;;17.86;57.15;102350.03;7357227;19;20124;-61
2023/04/17 12:39:53;;;;;;;;;;;;;;;17.74;56.94;102356.66;7357664;19;19919;-61
2023/04/17 12:42:20;;;;;;;;;;;;;;;17.68;56.57;102360.78;7355166;19;20187;-60